Time;durP1;ratioP1;P1;durP2;ratioP2;P2;SDS_P1;SDS_P2;PMS_P1;PMS_P2;Temp;Humidity;BMP_temperature;BMP_pressure;BME280_temperature;BME280_humidity;BME280_pressure;Samples;Min_cycle;Max_cycle;Signal;HPM_P1;HPM_P2
2022/08/18 00:02:02;;;;;;;13.15;5.07;;;19.70;99.90;;;;;;5039555;28;20037;-87
2022/08/18 00:04:28;;;;;;;16.42;5.68;;;19.90;99.90;;;;;;5037005;28;20045;-87
2022/08/18 00:06:53;;;;;;;16.42;5.63;;;19.70;99.90;;;;;;5036927;28;20040;-87
2022/08/18 00:09:19;;;;;;;14.45;6.07;;;19.60;99.90;;;;;;5036567;28;20136;-88
2022/08/18 00:11:44;;;;;;;16.13;5.47;;;19.70;99.90;;;;;;5036537;28;20041;-87
2022/08/18 00:14:16;;;;;;;14.02;5.55;;;19.70;99.90;;;;;;5039028;28;20033;-87
2022/08/18 00:16:42;;;;;;;15.73;5.07;;;19.70;99.90;;;;;;5036908;28;20100;-87
2022/08/18 00:19:08;;;;;;;13.55;4.90;;;19.70;99.90;;;;;;5035609;28;20041;-88
2022/08/18 00:21:34;;;;;;;16.15;5.38;;;19.70;99.90;;;;;;5034492;28;20389;-88
2022/08/18 00:24:00;;;;;;;12.98;4.85;;;19.60;99.90;;;;;;5035185;28;20057;-87
2022/08/18 00:26:26;;;;;;;14.13;5.18;;;19.50;99.90;;;;;;5039279;28;20507;-87
2022/08/18 00:28:52;;;;;;;15.00;5.65;;;19.60;99.90;;;;;;5035872;28;20046;-88
2022/08/18 00:31:17;;;;;;;15.60;5.47;;;19.50;99.90;;;;;;5038992;28;20045;-88
2022/08/18 00:33:43;;;;;;;17.30;5.57;;;19.50;99.90;;;;;;5046404;28;20121;-88
2022/08/18 00:36:10;;;;;;;13.15;5.50;;;19.50;99.90;;;;;;5048369;28;20069;-88
2022/08/18 00:38:36;;;;;;;11.95;5.30;;;19.50;99.90;;;;;;5036156;28;20409;-87
2022/08/18 00:41:02;;;;;;;14.50;5.78;;;19.50;99.90;;;;;;5035384;28;20139;-87
2022/08/18 00:43:43;;;;;;;13.05;5.20;;;19.50;99.90;;;;;;5034135;28;20061;-87
2022/08/18 00:46:19;;;;;;;14.43;5.80;;;19.50;99.90;;;;;;5034551;28;20056;-88
2022/08/18 00:48:46;;;;;;;13.90;5.65;;;19.40;99.90;;;;;;5036108;28;20091;-88
2022/08/18 00:51:33;;;;;;;15.20;5.70;;;19.40;99.90;;;;;;5035295;28;20130;-88
2022/08/18 00:54:05;;;;;;;14.85;5.82;;;19.40;99.90;;;;;;5035467;28;20045;-88
2022/08/18 00:56:39;;;;;;;18.83;5.95;;;19.40;99.90;;;;;;5032324;28;20037;-88
2022/08/18 00:59:18;;;;;;;15.95;5.80;;;19.40;99.90;;;;;;5033702;28;20397;-87
2022/08/18 01:01:47;;;;;;;16.50;6.10;;;19.40;99.90;;;;;;5034323;28;20045;-87
2022/08/18 01:04:26;;;;;;;16.65;5.97;;;19.40;99.90;;;;;;5035504;28;20128;-88
2022/08/18 01:07:04;;;;;;;13.30;5.70;;;19.40;99.90;;;;;;5036122;28;20489;-89
2022/08/18 01:09:29;;;;;;;16.05;6.20;;;19.40;99.90;;;;;;5038212;28;20037;-88
2022/08/18 01:11:55;;;;;;;18.90;6.30;;;19.30;99.90;;;;;;5055548;28;20045;-87
2022/08/18 01:14:21;;;;;;;18.77;5.90;;;19.30;99.90;;;;;;5046798;28;20124;-87
2022/08/18 01:22:31;;;;;;;18.40;6.47;;;19.40;99.90;;;;;;5033159;28;20132;-88
2022/08/18 01:27:43;;;;;;;18.45;7.13;;;19.40;99.90;;;;;;5018416;28;20506;-88
2022/08/18 01:30:17;;;;;;;19.58;6.50;;;19.40;99.90;;;;;;5035753;28;20048;-88
2022/08/18 01:32:44;;;;;;;21.13;6.78;;;19.40;99.90;;;;;;5034360;28;20064;-87
2022/08/18 01:35:13;;;;;;;21.80;7.15;;;19.30;99.90;;;;;;5034211;28;20116;-88
2022/08/18 01:37:40;;;;;;;19.15;6.72;;;19.40;99.90;;;;;;5032673;28;20117;-87
2022/08/18 01:40:08;;;;;;;19.80;6.55;;;19.40;99.90;;;;;;5032787;28;20444;-89
2022/08/18 01:42:35;;;;;;;22.90;7.45;;;19.40;99.90;;;;;;5035060;28;20044;-87
2022/08/18 01:45:03;;;;;;;22.00;6.70;;;19.40;99.90;;;;;;5036561;28;20056;-86
2022/08/18 01:47:30;;;;;;;19.75;7.00;;;19.40;99.90;;;;;;5042419;28;20049;-87
2022/08/18 01:49:57;;;;;;;21.20;6.60;;;19.40;99.90;;;;;;5022454;28;20046;-87
2022/08/18 01:52:23;;;;;;;19.98;7.32;;;19.80;99.90;;;;;;5015545;28;20053;-88
2022/08/18 01:54:50;;;;;;;19.77;7.03;;;19.40;99.90;;;;;;5032005;28;20050;-88
2022/08/18 01:57:18;;;;;;;24.38;7.35;;;19.40;99.90;;;;;;5031890;28;20052;-88
2022/08/18 01:59:43;;;;;;;18.55;7.15;;;19.40;99.90;;;;;;5032306;28;20041;-87
2022/08/18 02:02:14;;;;;;;22.02;7.18;;;19.40;99.90;;;;;;5033786;28;20512;-88
2022/08/18 02:04:41;;;;;;;19.48;6.72;;;19.40;99.90;;;;;;5030380;28;20394;-87
2022/08/18 02:07:10;;;;;;;25.13;8.30;;;19.40;99.90;;;;;;5016193;28;20041;-88
2022/08/18 02:09:38;;;;;;;18.08;7.07;;;19.50;99.90;;;;;;5045976;28;20042;-88
2022/08/18 02:12:05;;;;;;;21.27;7.70;;;19.40;99.90;;;;;;5033433;28;20038;-87
2022/08/18 02:14:32;;;;;;;22.23;7.82;;;19.40;99.90;;;;;;5015067;28;20081;-87
2022/08/18 02:17:01;;;;;;;20.08;8.02;;;19.40;99.90;;;;;;5031739;28;20045;-87
2022/08/18 02:19:26;;;;;;;20.35;7.40;;;19.40;99.90;;;;;;5018062;28;20148;-88
2022/08/18 02:21:53;;;;;;;23.58;7.53;;;19.40;99.90;;;;;;5016181;28;20130;-88
2022/08/18 02:24:19;;;;;;;22.63;7.20;;;19.40;99.90;;;;;;5016736;28;20138;-87
2022/08/18 02:26:44;;;;;;;18.25;8.05;;;19.40;99.90;;;;;;5033073;28;20048;-88
2022/08/18 02:29:10;;;;;;;20.15;7.00;;;19.40;99.90;;;;;;5032876;28;20041;-88
2022/08/18 02:31:36;;;;;;;21.80;6.68;;;19.40;99.90;;;;;;5033386;28;20061;-87
2022/08/18 02:34:01;;;;;;;19.75;6.75;;;19.40;99.90;;;;;;5017274;28;20045;-88
2022/08/18 02:36:27;;;;;;;18.55;6.78;;;19.40;99.90;;;;;;5032317;28;20041;-88
2022/08/18 02:38:53;;;;;;;23.90;7.18;;;19.40;99.90;;;;;;5024040;28;20067;-88
2022/08/18 02:41:20;;;;;;;20.48;7.10;;;19.40;99.90;;;;;;5016237;28;20033;-88
2022/08/18 02:43:47;;;;;;;16.20;6.75;;;19.40;99.90;;;;;;5018153;28;20048;-89
2022/08/18 02:46:13;;;;;;;18.45;6.68;;;19.60;99.90;;;;;;5033049;28;20030;-88
2022/08/18 02:48:39;;;;;;;19.92;7.20;;;19.40;99.90;;;;;;5016676;28;20042;-88
2022/08/18 02:51:16;;;;;;;17.30;6.30;;;19.60;99.90;;;;;;5032269;28;20432;-87
2022/08/18 02:53:44;;;;;;;19.75;6.60;;;19.40;99.90;;;;;;5024649;28;20068;-88
2022/08/18 02:58:42;;;;;;;18.10;6.75;;;19.40;99.90;;;;;;5033023;28;20494;-88
2022/08/18 03:01:08;;;;;;;18.80;6.80;;;19.40;99.90;;;;;;5016298;28;20044;-88
2022/08/18 03:03:35;;;;;;;23.20;7.38;;;19.40;99.90;;;;;;5015266;28;20045;-89
2022/08/18 03:06:00;;;;;;;16.58;6.90;;;19.40;99.90;;;;;;5033330;28;20042;-87
2022/08/18 03:08:26;;;;;;;22.67;6.78;;;19.40;99.90;;;;;;5016161;28;20038;-87
2022/08/18 03:10:52;;;;;;;19.20;6.20;;;19.40;99.90;;;;;;5016089;28;20049;-87
2022/08/18 03:13:19;;;;;;;17.65;7.03;;;19.80;99.90;;;;;;5016130;28;20109;-88
2022/08/18 03:15:46;;;;;;;19.77;6.47;;;19.50;99.90;;;;;;5033140;28;20056;-89
2022/08/18 03:18:12;;;;;;;15.20;6.03;;;19.50;99.90;;;;;;5033910;28;20037;-89
2022/08/18 03:20:38;;;;;;;15.90;6.90;;;19.50;99.90;;;;;;5033022;28;20047;-88
2022/08/18 03:23:04;;;;;;;16.40;6.45;;;19.50;99.90;;;;;;5016399;28;20124;-89
2022/08/18 03:25:30;;;;;;;18.65;6.53;;;19.60;99.90;;;;;;5015682;28;20038;-88
2022/08/18 03:27:56;;;;;;;14.63;6.05;;;19.50;99.90;;;;;;5015150;28;20052;-89
2022/08/18 03:30:22;;;;;;;22.08;6.97;;;19.50;99.90;;;;;;5015309;28;20678;-89
2022/08/18 03:32:49;;;;;;;19.85;6.40;;;19.40;99.90;;;;;;5015964;28;20138;-88
2022/08/18 03:35:15;;;;;;;19.92;7.25;;;19.50;99.90;;;;;;5041680;28;20124;-88
2022/08/18 03:37:41;;;;;;;20.27;6.90;;;19.40;99.90;;;;;;5034793;28;20086;-88
2022/08/18 03:40:09;;;;;;;18.75;7.55;;;19.50;99.90;;;;;;5004713;28;20037;-88
2022/08/18 03:42:35;;;;;;;15.02;6.45;;;19.50;99.90;;;;;;5037541;28;20045;-88
2022/08/18 03:45:01;;;;;;;22.90;6.70;;;19.50;99.90;;;;;;5038057;28;20034;-88
2022/08/18 03:47:26;;;;;;;18.67;7.35;;;19.40;99.90;;;;;;5035972;28;20097;-89
2022/08/18 03:49:52;;;;;;;19.15;7.80;;;19.40;99.90;;;;;;5037260;28;20073;-90
2022/08/18 03:52:18;;;;;;;21.17;7.53;;;19.50;99.90;;;;;;5041166;28;20048;-89
2022/08/18 03:54:45;;;;;;;18.23;7.28;;;19.50;99.90;;;;;;5035302;28;20041;-89
2022/08/18 03:57:11;;;;;;;15.50;7.38;;;19.50;99.90;;;;;;5040889;28;20116;-89
2022/08/18 03:59:40;;;;;;;19.38;7.53;;;19.40;99.90;;;;;;5035662;28;20489;-89
2022/08/18 04:02:06;;;;;;;20.00;7.43;;;19.50;99.90;;;;;;5037452;28;20457;-89
2022/08/18 04:04:32;;;;;;;21.50;7.78;;;19.50;99.90;;;;;;5037090;28;20095;-89
2022/08/18 04:07:03;;;;;;;19.95;8.13;;;19.40;99.90;;;;;;5037252;28;20117;-88
2022/08/18 04:09:30;;;;;;;15.05;6.82;;;19.60;99.90;;;;;;5036574;28;20127;-90
2022/08/18 04:11:57;;;;;;;17.02;7.40;;;19.40;99.90;;;;;;5056061;28;20563;-88
2022/08/18 04:14:30;;;;;;;17.35;6.65;;;19.40;99.90;;;;;;5039293;28;20087;-89
2022/08/18 04:16:56;;;;;;;18.73;7.68;;;19.40;99.90;;;;;;5037279;28;20045;-89
2022/08/18 04:19:22;;;;;;;14.68;6.43;;;19.40;99.90;;;;;;5037251;28;20037;-90
2022/08/18 04:21:51;;;;;;;20.80;6.82;;;19.50;99.90;;;;;;5035901;28;20045;-89
2022/08/18 04:24:17;;;;;;;18.20;7.38;;;19.50;99.90;;;;;;5034625;28;20577;-89
2022/08/18 04:26:45;;;;;;;17.90;7.18;;;19.50;99.90;;;;;;5033994;28;20049;-90
2022/08/18 04:29:13;;;;;;;10.93;6.65;;;19.50;99.90;;;;;;5035115;28;20489;-89
2022/08/18 04:31:39;;;;;;;15.27;7.15;;;19.50;99.90;;;;;;5052364;28;20041;-88
2022/08/18 04:34:05;;;;;;;17.15;7.30;;;19.50;99.90;;;;;;5040739;28;20037;-88
2022/08/18 04:36:33;;;;;;;19.70;8.38;;;19.50;99.90;;;;;;5036902;28;20099;-89
2022/08/18 04:38:59;;;;;;;13.55;7.35;;;19.50;99.90;;;;;;5036396;28;20093;-88
2022/08/18 04:41:27;;;;;;;14.85;6.90;;;19.50;99.90;;;;;;5035484;28;20484;-88
2022/08/18 04:44:04;;;;;;;12.85;7.13;;;19.50;99.90;;;;;;5035939;28;20041;-89
2022/08/18 04:46:35;;;;;;;18.70;7.32;;;19.50;99.90;;;;;;5035669;28;20053;-90
2022/08/18 04:49:00;;;;;;;16.92;7.28;;;19.50;99.90;;;;;;5036324;28;20049;-89
2022/08/18 04:51:28;;;;;;;14.43;7.38;;;19.40;99.90;;;;;;5036211;28;20136;-90
2022/08/18 04:53:55;;;;;;;13.98;6.82;;;19.40;99.90;;;;;;5035171;28;20072;-88
2022/08/18 04:56:25;;;;;;;16.33;7.82;;;19.40;99.90;;;;;;5044679;28;20037;-88
2022/08/18 04:58:58;;;;;;;14.55;7.78;;;19.40;99.90;;;;;;5041159;28;20045;-90
2022/08/18 05:01:28;;;;;;;18.52;8.32;;;19.70;99.90;;;;;;5037931;28;20073;-89
2022/08/18 05:03:56;;;;;;;11.90;6.95;;;19.40;99.90;;;;;;5033838;28;20464;-89
2022/08/18 05:06:24;;;;;;;15.50;7.90;;;19.40;99.90;;;;;;5033882;28;20041;-90
2022/08/18 05:08:52;;;;;;;14.55;7.47;;;19.40;99.90;;;;;;5036475;28;20443;-88
2022/08/18 05:11:18;;;;;;;12.05;6.93;;;19.40;99.90;;;;;;5034159;28;20045;-90
2022/08/18 05:13:43;;;;;;;11.23;6.40;;;19.40;99.90;;;;;;5035497;28;20490;-88
2022/08/18 05:16:09;;;;;;;12.02;6.75;;;19.40;99.90;;;;;;5034353;28;20045;-87
2022/08/18 05:18:39;;;;;;;16.92;7.22;;;19.40;99.90;;;;;;5035714;28;20041;-88
2022/08/18 05:21:12;;;;;;;11.30;7.20;;;19.40;99.90;;;;;;5035307;28;20045;-87
2022/08/18 05:23:41;;;;;;;11.65;7.10;;;19.30;99.90;;;;;;5034128;28;20120;-88
2022/08/18 05:26:07;;;;;;;10.85;7.47;;;19.50;99.90;;;;;;5034727;28;20132;-88
2022/08/18 05:28:36;;;;;;;12.60;7.60;;;19.30;99.90;;;;;;5035228;28;20049;-89
2022/08/18 05:31:23;;;;;;;13.60;8.35;;;19.30;99.90;;;;;;5032312;28;20485;-88
2022/08/18 05:33:49;;;;;;;13.95;7.90;;;19.30;99.90;;;;;;5039444;28;20045;-87
2022/08/18 05:36:24;;;;;;;17.38;8.02;;;19.30;99.90;;;;;;5028834;28;20171;-85
2022/08/18 05:39:14;;;;;;;16.55;7.50;;;19.40;99.90;;;;;;5031960;28;20045;-86
2022/08/18 05:41:47;;;;;;;16.15;7.90;;;19.40;99.90;;;;;;5032248;28;20049;-88
2022/08/18 05:44:17;;;;;;;14.18;7.47;;;19.40;99.90;;;;;;5033952;28;20132;-87
2022/08/18 05:47:27;;;;;;;15.45;7.53;;;19.50;99.90;;;;;;5037413;28;20057;-87
2022/08/18 05:49:55;;;;;;;14.18;7.20;;;19.50;99.90;;;;;;4988821;28;20542;-86
2022/08/18 05:52:27;;;;;;;12.55;6.18;;;19.50;99.90;;;;;;4988519;28;20566;-88
2022/08/18 05:57:53;;;;;;;13.70;5.50;;;19.60;99.90;;;;;;5034243;28;20041;-87
2022/08/18 06:00:22;;;;;;;14.35;5.82;;;19.60;99.90;;;;;;5034045;28;20045;-87
2022/08/18 06:02:56;;;;;;;17.15;5.65;;;19.70;99.90;;;;;;5032791;28;20045;-86
2022/08/18 06:05:31;;;;;;;12.52;5.65;;;19.70;99.90;;;;;;5035963;28;20060;-87
2022/08/18 06:08:04;;;;;;;10.13;5.07;;;19.80;99.90;;;;;;5033519;28;20041;-86
2022/08/18 06:10:30;;;;;;;11.38;5.80;;;19.80;99.90;;;;;;5030747;28;20045;-87
2022/08/18 06:13:01;;;;;;;15.60;6.07;;;19.90;99.90;;;;;;5033975;28;20386;-87
2022/08/18 06:15:48;;;;;;;15.57;6.00;;;20.00;99.90;;;;;;5034219;28;20045;-87
2022/08/18 06:18:41;;;;;;;11.82;5.63;;;20.00;99.90;;;;;;5034174;28;20124;-87
2022/08/18 06:21:36;;;;;;;16.23;6.22;;;19.90;99.90;;;;;;5013058;28;20054;-87
2022/08/18 06:24:36;;;;;;;11.40;5.22;;;19.90;99.90;;;;;;5004119;28;20053;-86
2022/08/18 06:27:39;;;;;;;11.18;5.95;;;19.90;99.90;;;;;;5033255;28;20042;-87
2022/08/18 06:30:09;;;;;;;10.10;5.78;;;20.00;99.90;;;;;;5052616;28;20049;-87
2022/08/18 06:32:41;;;;;;;17.23;5.53;;;19.90;99.90;;;;;;5032074;28;20123;-86
2022/08/18 06:35:34;;;;;;;13.98;5.10;;;19.90;99.90;;;;;;5033834;28;20408;-86
2022/08/18 06:38:40;;;;;;;11.52;4.70;;;19.90;99.90;;;;;;5033488;28;20102;-87
2022/08/18 06:41:22;;;;;;;11.07;4.63;;;19.90;99.90;;;;;;5032610;28;20136;-86
2022/08/18 06:44:15;;;;;;;15.50;4.35;;;20.00;99.90;;;;;;5051974;28;20456;-87
2022/08/18 06:46:48;;;;;;;12.48;3.80;;;20.00;99.90;;;;;;5042188;28;20092;-88
2022/08/18 06:49:53;;;;;;;15.57;4.07;;;20.10;99.90;;;;;;5033454;28;20160;-87
2022/08/18 06:52:33;;;;;;;15.75;3.80;;;20.10;99.90;;;;;;5045671;28;20041;-88
2022/08/18 06:55:14;;;;;;;12.45;4.00;;;20.10;99.90;;;;;;5030808;28;20063;-86
2022/08/18 06:57:56;;;;;;;15.02;3.80;;;20.20;99.90;;;;;;5026243;28;20042;-85
2022/08/18 07:00:26;;;;;;;13.15;3.63;;;20.20;99.90;;;;;;5040598;28;20049;-87
2022/08/18 07:02:57;;;;;;;12.15;3.30;;;20.30;99.90;;;;;;5032282;28;20060;-86
2022/08/18 07:05:26;;;;;;;12.90;3.50;;;20.30;99.90;;;;;;5033647;28;20476;-87
2022/08/18 07:08:09;;;;;;;13.65;3.47;;;20.20;99.90;;;;;;5036977;28;20045;-86
2022/08/18 07:10:51;;;;;;;9.20;3.28;;;20.20;99.90;;;;;;5037973;28;20050;-87
2022/08/18 07:13:19;;;;;;;14.05;3.20;;;20.20;99.90;;;;;;5035432;28;20436;-87
2022/08/18 07:15:47;;;;;;;11.13;3.88;;;20.20;99.90;;;;;;5034683;28;20432;-87
2022/08/18 07:18:16;;;;;;;9.65;3.75;;;20.20;99.90;;;;;;5038564;28;20462;-87
2022/08/18 07:20:45;;;;;;;13.75;3.65;;;20.20;99.90;;;;;;5036357;28;20064;-87
2022/08/18 07:23:27;;;;;;;15.63;3.70;;;20.20;99.90;;;;;;5036635;28;20048;-86
2022/08/18 07:26:05;;;;;;;12.68;3.58;;;20.10;99.90;;;;;;5037547;28;20045;-86
2022/08/18 07:28:42;;;;;;;15.68;3.65;;;20.10;99.90;;;;;;5041663;28;20593;-86
2022/08/18 07:31:11;;;;;;;14.38;3.88;;;20.00;99.90;;;;;;5041984;28;20069;-87
2022/08/18 07:33:41;;;;;;;10.15;3.50;;;20.00;99.90;;;;;;5042297;28;20540;-86
2022/08/18 07:36:09;;;;;;;11.07;3.50;;;19.90;99.90;;;;;;5043613;28;20068;-88
2022/08/18 07:39:01;;;;;;;17.38;4.10;;;20.00;99.90;;;;;;5038525;28;20030;-86
2022/08/18 07:41:37;;;;;;;10.25;3.40;;;20.00;99.90;;;;;;5025057;28;20077;-88
2022/08/18 07:44:34;;;;;;;9.98;3.55;;;20.10;99.90;;;;;;5035265;28;20056;-87
2022/08/18 07:47:11;;;;;;;12.95;3.53;;;20.10;99.90;;;;;;5064549;28;20390;-88
2022/08/18 07:49:38;;;;;;;9.55;3.60;;;20.30;99.90;;;;;;5064833;28;20056;-87
2022/08/18 07:52:17;;;;;;;8.52;3.05;;;20.30;99.90;;;;;;5064810;28;20048;-87
2022/08/18 07:54:56;;;;;;;8.15;2.58;;;20.50;99.90;;;;;;5043555;28;20546;-85
2022/08/18 07:57:57;;;;;;;8.40;2.70;;;20.60;99.90;;;;;;5041212;28;20100;-88
2022/08/18 08:00:28;;;;;;;10.07;2.80;;;20.70;99.90;;;;;;5025161;28;20056;-88
2022/08/18 08:03:22;;;;;;;9.80;3.15;;;20.80;99.90;;;;;;5043190;28;20496;-88
2022/08/18 08:06:04;;;;;;;6.55;2.70;;;21.00;99.90;;;;;;5011416;28;20528;-88
2022/08/18 08:08:43;;;;;;;5.97;2.75;;;21.10;99.90;;;;;;5055799;28;20037;-87
2022/08/18 08:11:32;;;;;;;7.82;2.83;;;21.10;99.90;;;;;;5067895;28;20037;-87
2022/08/18 08:14:05;;;;;;;6.20;2.30;;;21.30;99.90;;;;;;5049277;28;20049;-86
2022/08/18 08:16:47;;;;;;;8.52;2.60;;;21.30;99.90;;;;;;5045265;28;20052;-88
2022/08/18 08:19:39;;;;;;;5.70;2.28;;;21.20;99.90;;;;;;5048722;28;20077;-88
2022/08/18 08:22:28;;;;;;;7.07;2.22;;;21.20;99.90;;;;;;5051921;28;20052;-88
2022/08/18 08:25:22;;;;;;;7.38;2.40;;;21.20;99.90;;;;;;5054249;28;20480;-88
2022/08/18 08:28:01;;;;;;;7.78;2.30;;;21.10;99.90;;;;;;5055447;28;20038;-88
2022/08/18 08:30:30;;;;;;;8.82;2.50;;;21.10;99.90;;;;;;5054519;28;20073;-88
2022/08/18 08:33:08;;;;;;;7.32;2.50;;;21.10;99.90;;;;;;5050061;28;20044;-88
2022/08/18 08:35:47;;;;;;;4.47;2.17;;;21.10;99.90;;;;;;5049127;28;20033;-86
2022/08/18 08:38:31;;;;;;;6.07;2.00;;;21.20;99.90;;;;;;5049017;28;20045;-86
2022/08/18 08:41:07;;;;;;;7.57;2.40;;;21.20;99.90;;;;;;5053923;28;20485;-87
2022/08/18 08:43:42;;;;;;;4.25;2.10;;;21.10;99.90;;;;;;5051118;28;20552;-88
2022/08/18 08:46:14;;;;;;;4.85;2.05;;;21.20;99.90;;;;;;5052564;28;20074;-88
2022/08/18 08:49:06;;;;;;;5.70;1.95;;;21.20;99.90;;;;;;5062022;28;20065;-87
2022/08/18 08:51:37;;;;;;;4.97;1.92;;;21.40;99.90;;;;;;5050196;28;20060;-89
2022/08/18 08:54:18;;;;;;;7.82;2.25;;;21.40;99.90;;;;;;5054979;28;20065;-88
2022/08/18 08:56:47;;;;;;;5.50;2.30;;;21.60;99.90;;;;;;5053127;28;20045;-88
2022/08/18 08:59:17;;;;;;;5.00;1.90;;;21.40;99.90;;;;;;5053042;28;20048;-87
2022/08/18 09:02:23;;;;;;;5.93;2.17;;;21.40;99.90;;;;;;5046239;28;20206;-88
2022/08/18 09:05:12;;;;;;;6.18;2.10;;;21.30;99.90;;;;;;5047767;28;20045;-88
2022/08/18 09:08:07;;;;;;;6.15;2.10;;;21.30;99.90;;;;;;5040446;28;20073;-89
2022/08/18 09:10:36;;;;;;;8.10;2.65;;;21.30;99.90;;;;;;5050391;28;20041;-87
2022/08/18 09:13:17;;;;;;;5.95;2.13;;;21.30;99.90;;;;;;5038844;28;20033;-88
2022/08/18 09:16:07;;;;;;;5.15;2.30;;;21.20;99.90;;;;;;5033930;28;20128;-87
2022/08/18 09:18:43;;;;;;;6.43;2.30;;;21.30;99.90;;;;;;5035494;28;20045;-88
2022/08/18 09:21:40;;;;;;;5.47;2.33;;;21.30;99.90;;;;;;5050219;28;20037;-88
2022/08/18 09:24:09;;;;;;;9.02;2.50;;;21.30;99.90;;;;;;5035562;28;20052;-88
2022/08/18 09:26:45;;;;;;;5.45;2.35;;;21.30;99.90;;;;;;5050188;28;20207;-87
2022/08/18 09:29:44;;;;;;;4.90;2.17;;;21.30;99.90;;;;;;5043034;28;20041;-88
2022/08/18 09:32:19;;;;;;;6.50;2.28;;;21.30;99.90;;;;;;5045925;28;20434;-88
2022/08/18 09:35:04;;;;;;;7.53;2.47;;;21.20;99.90;;;;;;5025852;28;20037;-88
2022/08/18 09:43:53;;;;;;;5.05;1.90;;;21.30;99.90;;;;;;5031304;28;20045;-87
2022/08/18 09:46:46;;;;;;;4.95;2.30;;;21.40;99.90;;;;;;5034464;28;20095;-87
2022/08/18 09:49:21;;;;;;;4.78;2.10;;;21.60;99.90;;;;;;5035565;28;20057;-88
2022/08/18 09:51:49;;;;;;;4.93;1.92;;;21.90;99.90;;;;;;5035226;28;20041;-88
2022/08/18 09:54:17;;;;;;;4.80;2.03;;;22.30;99.90;;;;;;5033751;28;20044;-88
2022/08/18 09:56:49;;;;;;;6.10;2.30;;;22.50;99.90;;;;;;5036172;28;20095;-88
2022/08/18 09:59:33;;;;;;;4.90;2.08;;;22.60;99.90;;;;;;5029883;28;20481;-88
2022/08/18 10:02:11;;;;;;;6.13;1.83;;;22.60;99.90;;;;;;5034413;28;20052;-88
2022/08/18 10:04:47;;;;;;;7.20;2.30;;;22.60;99.90;;;;;;5035289;28;20052;-88
2022/08/18 10:07:32;;;;;;;4.63;2.00;;;22.60;99.90;;;;;;5034727;28;20089;-88
2022/08/18 10:10:11;;;;;;;8.85;2.47;;;22.60;99.90;;;;;;5034159;28;20037;-88
2022/08/18 10:13:13;;;;;;;4.30;2.03;;;22.70;99.90;;;;;;5035468;28;20501;-87
2022/08/18 10:16:09;;;;;;;7.03;2.08;;;22.70;99.90;;;;;;5044851;28;20064;-87
2022/08/18 10:18:52;;;;;;;4.22;1.88;;;22.60;99.90;;;;;;5037514;28;20119;-88
2022/08/18 10:21:26;;;;;;;7.88;2.17;;;22.50;99.90;;;;;;5036425;28;20377;-83
2022/08/18 10:24:10;;;;;;;4.07;1.90;;;22.50;99.90;;;;;;5033328;28;20037;-82
2022/08/18 10:26:39;;;;;;;4.85;1.90;;;22.40;99.90;;;;;;5029759;28;20068;-83
2022/08/18 10:29:10;;;;;;;4.93;2.10;;;22.40;99.90;;;;;;5027449;28;20045;-82
2022/08/18 10:31:58;;;;;;;5.82;1.90;;;22.30;99.90;;;;;;5032087;28;20072;-83
2022/08/18 10:34:42;;;;;;;6.07;2.25;;;22.20;99.90;;;;;;5012921;28;20050;-83
2022/08/18 10:37:31;;;;;;;6.10;2.03;;;22.20;99.90;;;;;;5033901;28;20053;-82
2022/08/18 10:40:19;;;;;;;7.15;2.30;;;22.10;99.90;;;;;;5034238;28;20050;-83
2022/08/18 10:42:50;;;;;;;7.80;1.90;;;22.10;99.90;;;;;;5032422;28;20045;-82
2022/08/18 10:45:25;;;;;;;5.90;2.15;;;22.00;99.90;;;;;;5032939;28;20056;-82
2022/08/18 10:48:17;;;;;;;5.35;2.20;;;22.10;99.90;;;;;;5033645;28;20053;-82
2022/08/18 10:50:51;;;;;;;6.28;2.33;;;22.00;99.90;;;;;;5031906;28;20053;-83
2022/08/18 10:53:39;;;;;;;5.53;2.13;;;22.10;99.90;;;;;;5034039;28;20067;-82
2022/08/18 10:56:16;;;;;;;5.45;2.30;;;22.10;99.90;;;;;;5032966;28;20041;-83
2022/08/18 10:59:03;;;;;;;4.38;2.20;;;22.10;99.90;;;;;;5034894;28;20045;-83
2022/08/18 11:01:50;;;;;;;6.65;2.30;;;22.10;99.90;;;;;;5033378;28;20060;-82
2022/08/18 11:04:31;;;;;;;6.65;2.05;;;22.10;99.90;;;;;;5033962;28;20065;-83
2022/08/18 11:07:13;;;;;;;6.28;2.00;;;22.10;99.90;;;;;;5032761;28;20053;-82
2022/08/18 11:09:41;;;;;;;5.22;2.00;;;22.20;99.90;;;;;;5033881;28;20076;-82
2022/08/18 11:12:09;;;;;;;4.30;2.00;;;22.10;99.90;;;;;;5033658;28;20099;-82
2022/08/18 11:14:49;;;;;;;5.28;2.13;;;22.10;99.90;;;;;;5033716;28;20120;-82
2022/08/18 11:17:36;;;;;;;3.97;1.83;;;21.90;99.90;;;;;;5022269;28;20049;-82
2022/08/18 11:20:06;;;;;;;4.88;2.38;;;21.80;99.90;;;;;;5012673;28;20050;-82
2022/08/18 11:22:34;;;;;;;5.15;2.45;;;21.80;99.90;;;;;;5012300;28;20046;-82
2022/08/18 11:25:02;;;;;;;6.82;2.30;;;21.80;99.90;;;;;;5012692;28;20096;-82
2022/08/18 11:27:34;;;;;;;7.18;2.22;;;21.80;99.90;;;;;;5032921;28;20049;-84
2022/08/18 11:30:01;;;;;;;6.55;2.20;;;22.00;99.90;;;;;;5032167;28;20370;-83
2022/08/18 11:32:29;;;;;;;4.80;1.90;;;22.00;99.90;;;;;;5033143;28;20038;-82
2022/08/18 11:34:58;;;;;;;5.30;2.17;;;22.30;99.90;;;;;;5033289;28;20064;-83
2022/08/18 11:37:38;;;;;;;8.05;2.10;;;23.20;99.90;;;;;;5032122;28;20061;-83
2022/08/18 11:40:35;;;;;;;5.38;2.00;;;24.80;99.90;;;;;;5033385;28;20044;-83
2022/08/18 11:43:05;;;;;;;5.50;2.17;;;26.60;99.90;;;;;;5009890;28;20547;-83
2022/08/18 11:45:52;;;;;;;6.45;2.20;;;27.80;99.90;;;;;;5033580;28;20045;-82
2022/08/18 11:48:41;;;;;;;7.72;2.30;;;27.90;99.90;;;;;;5033422;28;20128;-83
2022/08/18 11:51:17;;;;;;;5.03;2.10;;;27.50;99.90;;;;;;5015195;28;20478;-82
2022/08/18 11:53:53;;;;;;;5.10;1.80;;;27.10;99.90;;;;;;5032545;28;20054;-83
2022/08/18 11:56:19;;;;;;;7.13;2.20;;;26.80;99.90;;;;;;5036774;28;20056;-83
2022/08/18 11:58:52;;;;;;;4.13;1.90;;;27.00;99.90;;;;;;5033243;28;20041;-84
2022/08/18 12:01:38;;;;;;;5.03;2.10;;;27.90;99.90;;;;;;5036462;28;20045;-83
2022/08/18 12:04:12;;;;;;;;;;;28.70;99.90;;;;;;5025743;28;20402;-82
2022/08/18 12:06:48;;;;;;;4.45;1.92;;;29.40;99.90;;;;;;5036749;28;19987;-83
2022/08/18 12:09:43;;;;;;;5.95;2.15;;;29.40;99.90;;;;;;5036450;28;20147;-88
2022/08/18 12:12:22;;;;;;;5.88;2.10;;;29.00;99.90;;;;;;5024018;28;20042;-88
2022/08/18 12:15:22;;;;;;;7.65;1.90;;;28.40;99.90;;;;;;5034986;28;20041;-88
2022/08/18 12:17:48;;;;;;;4.20;1.95;;;27.80;99.90;;;;;;5028497;28;20057;-89
2022/08/18 12:20:15;;;;;;;5.80;2.00;;;27.20;99.90;;;;;;5037158;28;20029;-87
2022/08/18 12:22:43;;;;;;;4.32;1.90;;;26.70;99.90;;;;;;5051569;28;20041;-87
2022/08/18 12:25:13;;;;;;;3.83;1.90;;;26.40;99.90;;;;;;5037552;28;20438;-86
2022/08/18 12:27:39;;;;;;;5.35;1.90;;;27.10;99.90;;;;;;5035819;28;20266;-87
2022/08/18 12:30:08;;;;;;;4.78;1.83;;;28.00;99.90;;;;;;5036071;28;20077;-86
2022/08/18 12:32:35;;;;;;;6.70;1.90;;;28.30;99.90;;;;;;5036400;28;20481;-85
2022/08/18 12:35:03;;;;;;;5.75;1.98;;;28.20;99.90;;;;;;5036680;28;20493;-86
2022/08/18 12:37:29;;;;;;;4.72;2.00;;;27.90;99.90;;;;;;5032101;28;20041;-86
2022/08/18 12:39:56;;;;;;;6.30;1.83;;;27.90;99.90;;;;;;5030755;28;20477;-86
2022/08/18 12:42:22;;;;;;;4.90;2.00;;;27.80;99.90;;;;;;5041906;28;20389;-86
2022/08/18 12:44:48;;;;;;;4.03;1.85;;;27.90;99.90;;;;;;5035359;28;20065;-86
2022/08/18 12:47:23;;;;;;;4.72;2.00;;;27.80;99.90;;;;;;5036274;28;20517;-87
2022/08/18 12:49:49;;;;;;;3.38;1.77;;;27.60;99.90;;;;;;5034686;28;20405;-84
2022/08/18 12:52:15;;;;;;;5.47;2.00;;;27.30;99.90;;;;;;5032630;28;20068;-84
2022/08/18 12:54:42;;;;;;;4.68;2.00;;;27.30;99.90;;;;;;5016730;28;20517;-84
2022/08/18 12:57:12;;;;;;;3.85;2.05;;;27.30;99.90;;;;;;5016526;28;20038;-84
2022/08/18 12:59:37;;;;;;;4.03;2.08;;;27.30;99.90;;;;;;5015786;28;20405;-84
2022/08/18 13:02:06;;;;;;;3.83;1.85;;;27.20;99.90;;;;;;5014255;28;20041;-84
2022/08/18 13:04:32;;;;;;;4.00;1.85;;;27.20;99.90;;;;;;5014974;28;20050;-85
2022/08/18 13:06:58;;;;;;;5.18;1.80;;;27.30;99.90;;;;;;5016751;28;20054;-84
2022/08/18 13:09:25;;;;;;;4.45;1.90;;;27.40;99.90;;;;;;5014491;28;20048;-84
2022/08/18 13:11:51;;;;;;;4.20;1.95;;;27.30;99.90;;;;;;5014040;28;20085;-85
2022/08/18 13:14:16;;;;;;;4.05;1.70;;;27.30;99.90;;;;;;5015281;28;20045;-84
2022/08/18 13:16:44;;;;;;;4.22;1.60;;;27.20;99.90;;;;;;5015878;28;20061;-84
2022/08/18 13:19:12;;;;;;;6.05;1.90;;;27.20;99.90;;;;;;5015338;28;20049;-85
2022/08/18 13:21:39;;;;;;;3.38;1.80;;;27.20;99.90;;;;;;5013903;28;20046;-85
2022/08/18 13:24:04;;;;;;;4.00;1.92;;;27.10;99.90;;;;;;5015293;28;20136;-85
2022/08/18 13:26:35;;;;;;;4.53;1.90;;;26.90;99.90;;;;;;5014800;28;20498;-84
2022/08/18 13:29:02;;;;;;;5.13;2.00;;;26.70;99.90;;;;;;5014457;28;20049;-84
2022/08/18 13:31:28;;;;;;;7.75;2.17;;;26.50;99.90;;;;;;5015017;28;20046;-85
2022/08/18 13:33:55;;;;;;;3.13;1.90;;;26.40;99.90;;;;;;5015372;28;20479;-85